weather.gov     
National Weather Service

Terminal Aerodrome Forecast
NWS Homepage
This page is being discontinued on March 12, 2014.
The same data is available at this site. Please update your bookmarks.
Thank you, and we apologize for the inconvenience.
Please send an email to SR-SRH.Webmaster@noaa.gov with any concerns.


Current Version
Previous Version:    01  02  03  04  05  06  07  08  09  10  11  12  13  14  15  16  17  18  19  20  21  22  23  24  25  26  27  28  29  30  
   31  32  33  34  35  36  37  
[Printable]
134
FTUS46 KPQR 252325
TAFSLE
TAF
KSLE 252325Z 2600/2624 18024G45KT P6SM -SHRA SCT025 OVC050
      TEMPO 2600/2602 4SM SHRA BKN025 OVC040
     FM260200 20015G29KT P6SM -SHRA BKN030 BKN050
     FM260500 22012KT P6SM -SHRA BKN030 BKN050
     FM261000 24007KT P6SM -SHRA BKN030 OVC050=


134
FTUS46 KPQR 252325
TAFSLE
TAF
KSLE 252325Z 2600/2624 18024G45KT P6SM -SHRA SCT025 OVC050
      TEMPO 2600/2602 4SM SHRA BKN025 OVC040
     FM260200 20015G29KT P6SM -SHRA BKN030 BKN050
     FM260500 22012KT P6SM -SHRA BKN030 BKN050
     FM261000 24007KT P6SM -SHRA BKN030 OVC050=




U.S. Dept. of Commerce
NOAA National Weather Service
1325 East West Highway
Silver Spring, MD 20910
E-mail: w-nws.webmaster@noaa.gov
Page last modified: May 16, 2007
NATIONAL WEATHER SERVICE: for Safety, for Work, for Fun - FOR LIFE